Time;durP1;ratioP1;P1;durP2;ratioP2;P2;SDS_P1;SDS_P2;PMS_P1;PMS_P2;Temp;Humidity;BMP_temperature;BMP_pressure;BME280_temperature;BME280_humidity;BME280_pressure;Samples;Min_cycle;Max_cycle;Signal;HPM_P1;HPM_P2
2022/05/26 00:00:32;;;;;;;46.40;10.55;;;;;;;;;;5014856;28;20128;-62
2022/05/26 00:02:58;;;;;;;42.22;10.35;;;;;;;;;;5021003;28;20125;-62
2022/05/26 00:05:24;;;;;;;38.83;11.18;;;;;;;;;;5033808;28;20061;-64
2022/05/26 00:07:51;;;;;;;38.28;9.82;;;;;;;;;;5033491;28;20077;-63
2022/05/26 00:10:17;;;;;;;48.03;11.25;;;;;;;;;;5034541;28;20048;-63
2022/05/26 00:12:43;;;;;;;32.40;8.98;;;;;;;;;;5032857;28;20135;-63
2022/05/26 00:15:10;;;;;;;39.22;9.30;;;;;;;;;;5033375;28;20084;-63
2022/05/26 00:17:36;;;;;;;41.08;11.35;;;;;;;;;;5033390;28;20088;-63
2022/05/26 00:20:02;;;;;;;35.85;8.80;;;;;;;;;;5035094;28;20083;-63
2022/05/26 00:22:28;;;;;;;49.13;10.48;;;;;;;;;;5036565;28;20106;-63
2022/05/26 00:24:54;;;;;;;41.97;10.65;;;;;;;;;;5054252;28;20057;-62
2022/05/26 00:27:20;;;;;;;37.25;9.70;;;;;;;;;;5035347;28;20911;-64
2022/05/26 00:29:46;;;;;;;34.95;8.50;;;;;;;;;;5053990;28;20057;-63
2022/05/26 00:32:12;;;;;;;46.33;11.13;;;;;;;;;;5054226;28;20049;-62
2022/05/26 00:34:38;;;;;;;39.67;10.30;;;;;;;;;;5054153;28;20051;-64
2022/05/26 00:37:08;;;;;;;43.30;10.88;;;;;;;;;;5036233;28;20516;-62
2022/05/26 00:39:34;;;;;;;51.90;10.57;;;;;;;;;;5053983;28;20045;-63
2022/05/26 00:42:01;;;;;;;37.53;10.20;;;;;;;;;;5035480;28;20457;-64
2022/05/26 00:44:28;;;;;;;36.95;9.32;;;;;;;;;;5035152;28;20413;-63
2022/05/26 00:46:57;;;;;;;45.05;10.75;;;;;;;;;;5036072;28;20061;-63
2022/05/26 00:49:41;;;;;;;44.95;9.88;;;;;;;;;;5019714;28;20191;-63
2022/05/26 00:52:09;;;;;;;49.75;12.35;;;;;;;;;;5035905;28;20057;-64
2022/05/26 00:54:35;;;;;;;46.95;10.57;;;;;;;;;;5035908;28;20045;-62
2022/05/26 00:57:03;;;;;;;41.00;10.50;;;;;;;;;;5053809;28;20052;-62
2022/05/26 00:59:37;;;;;;;49.33;10.43;;;;;;;;;;5018115;28;20052;-62
2022/05/26 01:02:03;;;;;;;36.22;8.55;;;;;;;;;;5053634;28;20055;-63
2022/05/26 01:04:32;;;;;;;45.92;9.45;;;;;;;;;;5053365;28;20498;-63
2022/05/26 01:07:03;;;;;;;43.08;10.02;;;;;;;;;;5019335;28;20053;-63
2022/05/26 01:09:29;;;;;;;33.30;8.35;;;;;;;;;;5019432;28;20496;-63
2022/05/26 01:11:55;;;;;;;27.27;8.25;;;;;;;;;;5053515;28;20045;-62
2022/05/26 01:14:23;;;;;;;46.10;10.02;;;;;;;;;;5035088;28;20551;-62
2022/05/26 01:17:08;;;;;;;38.45;9.13;;;;;;;;;;5031579;28;20107;-63
2022/05/26 01:20:13;;;;;;;35.67;8.98;;;13.60;99.90;;;;;;5032895;28;20497;-63
2022/05/26 01:22:51;;;;;;;46.83;9.35;;;;;;;;;;5033310;28;20107;-63
2022/05/26 01:25:20;;;;;;;36.42;9.65;;;;;;;;;;5033337;28;20080;-63
2022/05/26 01:27:53;;;;;;;51.97;8.82;;;;;;;;;;5033157;28;20057;-62
2022/05/26 01:30:30;;;;;;;46.05;9.38;;;;;;;;;;5039599;28;20393;-64
2022/05/26 01:33:15;;;;;;;51.92;9.80;;;;;;;;;;5019011;28;20055;-62
2022/05/26 01:35:45;;;;;;;33.67;8.05;;;;;;;;;;5052814;28;20493;-62
2022/05/26 01:38:14;;;;;;;46.60;10.30;;;;;;;;;;5035318;28;20115;-62
2022/05/26 01:40:55;;;;;;;45.60;9.10;;;;;;;;;;5035020;28;20493;-62
2022/05/26 01:43:40;;;;;;;41.90;9.38;;;;;;;;;;5052932;28;20084;-62
2022/05/26 01:46:11;;;;;;;40.78;10.63;;;;;;;;;;5052094;28;20053;-63
2022/05/26 01:48:50;;;;;;;46.08;8.98;;;;;;;;;;5034303;28;20124;-62
2022/05/26 01:51:39;;;;;;;40.55;9.25;;;;;;;;;;5035041;28;20049;-62
2022/05/26 01:54:18;;;;;;;45.92;8.25;;;;;;;;;;5035086;28;20048;-63
2022/05/26 01:56:47;;;;;;;39.15;9.10;;;;;;;;;;5018600;28;20516;-61
2022/05/26 01:59:16;;;;;;;50.53;10.05;;;;;;;;;;5034815;28;20055;-62
2022/05/26 02:04:38;;;;;;;45.75;9.63;;;;;;;;;;5131245;22;1211713;-61
2022/05/26 02:07:21;;;;;;;36.63;8.75;;;;;;;;;;5092187;28;20109;-61
2022/05/26 02:09:48;;;;;;;44.10;9.07;;;;;;;;;;5092429;28;20101;-61
2022/05/26 02:12:19;;;;;;;48.20;10.18;;;;;;;;;;5110507;28;20051;-62
2022/05/26 02:14:48;;;;;;;39.17;8.10;;;;;;;;;;5091400;28;20051;-61
2022/05/26 02:17:17;;;;;;;36.30;7.95;;;;;;;;;;5092125;28;20051;-62
2022/05/26 02:19:54;;;;;;;43.08;8.13;;;;;;;;;;5109114;28;20059;-62
2022/05/26 02:22:23;;;;;;;49.65;10.65;;;;;;;;;;5108638;28;20423;-61
2022/05/26 02:25:04;;;;;;;34.42;8.65;;;;;;;;;;5092218;28;20054;-61
2022/05/26 02:27:31;;;;;;;35.25;7.68;;;;;;;;;;5109350;28;20533;-61
2022/05/26 02:30:00;;;;;;;43.83;8.20;;;;;;;;;;5091298;28;20044;-61
2022/05/26 02:32:37;;;;;;;36.10;7.82;;;;;;;;;;5092002;28;20055;-61
2022/05/26 02:35:06;;;;;;;43.13;9.65;;;;;;;;;;5108769;28;20058;-61
2022/05/26 02:37:34;;;;;;;48.65;9.05;;;;;;;;;;5110175;28;20078;-61
2022/05/26 02:40:00;;;;;;;40.28;8.77;;;;;;;;;;5091864;28;20066;-61
2022/05/26 02:42:27;;;;;;;41.45;9.93;;;;;;;;;;5108438;28;20056;-61
2022/05/26 02:44:53;;;;;;;33.33;8.02;;;;;;;;;;5108666;28;20047;-61
2022/05/26 02:47:28;;;;;;;38.75;6.22;;;;;;;;;;5109468;28;20051;-60
2022/05/26 02:50:19;;;;;;;37.17;7.22;;;13.80;99.90;;;;;;5108752;28;20500;-60
2022/05/26 02:53:02;;;;;;;33.50;6.47;;;;;;;;;;5108971;28;20055;-61
2022/05/26 02:56:10;;;;;;;27.15;4.93;;;13.90;99.90;;;;;;5108235;28;20040;-61
2022/05/26 02:58:39;;;;;;;36.05;5.95;;;;;;;;;;5109779;28;20109;-61
2022/05/26 03:01:10;;;;;;;29.85;5.82;;;;;;;;;;5108805;28;20067;-62
2022/05/26 03:03:38;;;;;;;34.15;6.03;;;;;;;;;;5070957;28;20052;-62
2022/05/26 03:06:10;;;;;;;29.77;5.15;;;;;;;;;;5088758;28;20100;-61
2022/05/26 03:08:39;;;;;;;27.83;4.90;;;;;;;;;;5088220;28;20067;-62
2022/05/26 03:11:07;;;;;;;23.60;4.68;;;;;;;;;;5089057;28;20105;-61
2022/05/26 03:13:33;;;;;;;31.02;5.53;;;;;;;;;;5088859;28;20044;-62
2022/05/26 03:15:59;;;;;;;26.05;4.93;;;;;;;;;;5076201;28;20037;-61
2022/05/26 03:18:25;;;;;;;22.63;4.13;;;;;;;;;;5095375;28;20044;-62
2022/05/26 03:20:51;;;;;;;20.15;3.92;;;;;;;;;;5095718;28;20052;-62
2022/05/26 03:23:17;;;;;;;27.85;5.07;;;;;;;;;;5094426;28;20086;-61
2022/05/26 03:25:46;;;;;;;27.17;4.63;;;;;;;;;;5095427;28;20419;-61
2022/05/26 03:28:13;;;;;;;24.70;3.75;;;;;;;;;;5095380;28;20044;-62
2022/05/26 03:30:40;;;;;;;16.92;4.20;;;;;;;;;;5076422;28;20052;-62
2022/05/26 03:33:06;;;;;;;21.85;4.95;;;;;;;;;;5095136;28;20257;-61
2022/05/26 03:41:01;;;;;;;12.80;3.40;;;;;;;;;;5094128;28;20048;-61
2022/05/26 03:43:37;;;;;;;15.07;4.35;;;;;;;;;;5094893;28;20058;-63
2022/05/26 03:46:03;;;;;;;11.68;2.25;;;;;;;;;;5094188;28;20052;-62
2022/05/26 03:48:29;;;;;;;15.68;3.22;;;;;;;;;;5076856;28;20488;-62
2022/05/26 03:50:55;;;;;;;13.68;2.75;;;;;;;;;;5093719;28;20070;-62
2022/05/26 03:53:21;;;;;;;10.77;2.40;;;;;;;;;;5094869;28;20465;-61
2022/05/26 03:55:47;;;;;;;5.63;2.08;;;;;;;;;;5094783;28;20118;-61
2022/05/26 03:58:13;;;;;;;10.65;2.67;;;;;;;;;;5093430;28;20495;-63
2022/05/26 04:00:39;;;;;;;13.65;2.45;;;;;;;;;;5092914;28;20055;-62
2022/05/26 04:03:06;;;;;;;9.85;2.80;;;;;;;;;;5093453;28;20044;-61
2022/05/26 04:05:32;;;;;;;9.32;2.67;;;;;;;;;;5093124;28;20133;-61
2022/05/26 04:07:58;;;;;;;8.48;2.92;;;;;;;;;;5093542;28;20044;-61
2022/05/26 04:10:24;;;;;;;9.13;1.70;;;;;;;;;;5076689;28;20052;-62
2022/05/26 04:12:50;;;;;;;8.27;2.08;;;;;;;;;;5076576;28;20051;-61
2022/05/26 04:15:17;;;;;;;7.53;1.58;;;;;;;;;;5092766;28;20081;-61
2022/05/26 04:17:43;;;;;;;9.52;1.60;;;;;;;;;;5093254;28;20040;-61
2022/05/26 04:20:10;;;;;;;8.10;1.40;;;;;;;;;;5093387;28;20382;-62
2022/05/26 04:22:36;;;;;;;9.52;1.33;;;;;;;;;;5094119;28;20504;-61
2022/05/26 04:25:03;;;;;;;4.30;1.13;;;;;;;;;;5092843;28;20091;-61
2022/05/26 04:27:30;;;;;;;8.43;1.30;;;;;;;;;;5092395;28;20392;-61
2022/05/26 04:29:56;;;;;;;8.07;1.38;;;;;;;;;;5092315;28;20044;-62
2022/05/26 04:32:22;;;;;;;5.65;1.73;;;;;;;;;;5093945;28;20450;-62
2022/05/26 04:34:50;;;;;;;6.93;1.30;;;;;;;;;;5074540;28;20096;-62
2022/05/26 04:37:17;;;;;;;7.93;1.30;;;;;;;;;;5072500;28;20470;-62
2022/05/26 04:39:43;;;;;;;8.38;1.30;;;;;;;;;;5073603;28;20079;-61
2022/05/26 04:42:09;;;;;;;7.95;1.50;;;;;;;;;;5089607;28;20091;-63
2022/05/26 04:44:37;;;;;;;6.75;1.02;;;;;;;;;;5072337;28;20107;-61
2022/05/26 04:47:03;;;;;;;4.85;1.40;;;;;;;;;;5075007;28;20044;-62
2022/05/26 04:49:30;;;;;;;11.02;1.83;;;;;;;;;;5092585;28;20449;-61
2022/05/26 04:51:56;;;;;;;6.80;1.25;;;;;;;;;;5093734;28;20058;-62
2022/05/26 04:54:22;;;;;;;7.63;1.23;;;;;;;;;;5092524;28;20085;-62
2022/05/26 04:56:49;;;;;;;7.40;1.95;;;;;;;;;;5075941;28;20048;-61
2022/05/26 04:59:15;;;;;;;3.25;1.10;;;;;;;;;;5075935;28;20058;-62
2022/05/26 05:01:41;;;;;;;6.32;1.35;;;;;;;;;;5092548;28;20083;-61
2022/05/26 05:04:07;;;;;;;8.98;1.40;;;;;;;;;;5092233;28;20089;-62
2022/05/26 05:06:33;;;;;;;12.40;1.98;;;;;;;;;;5092068;28;20056;-61
2022/05/26 05:09:00;;;;;;;9.02;1.13;;;;;;;;;;5075496;28;20060;-61
2022/05/26 05:11:26;;;;;;;9.85;1.27;;;;;;;;;;5093585;28;20052;-63
2022/05/26 05:13:53;;;;;;;3.65;1.00;;;;;;;;;;5092487;28;20048;-61
2022/05/26 05:16:29;;;;;;;4.78;1.08;;;;;;;;;;5091406;28;20036;-61
2022/05/26 05:18:55;;;;;;;6.28;1.13;;;;;;;;;;5075154;28;20048;-61
2022/05/26 05:21:24;;;;;;;8.85;1.42;;;;;;;;;;5091958;28;20117;-63
2022/05/26 05:23:53;;;;;;;11.82;1.52;;;;;;;;;;5092083;28;20102;-61
2022/05/26 05:26:20;;;;;;;7.72;1.30;;;;;;;;;;5075331;28;20062;-61
2022/05/26 05:29:05;;;;;;;9.40;1.52;;;;;;;;;;5114303;22;20082;-61
2022/05/26 05:34:13;;;;;;;4.95;1.30;;;;;;;;;;5084951;22;20134;-62
2022/05/26 05:36:39;;;;;;;7.30;1.33;;;;;;;;;;5095490;28;20039;-62
2022/05/26 05:39:05;;;;;;;9.43;1.35;;;;;;;;;;5113033;28;20559;-61
2022/05/26 05:41:33;;;;;;;8.65;2.13;;;;;;;;;;5113323;28;20043;-62
2022/05/26 05:44:00;;;;;;;14.60;3.50;;;;;;;;;;5113121;28;20075;-61
2022/05/26 05:46:33;;;;;;;6.22;1.30;;;;;;;;;;5094932;28;20058;-61
2022/05/26 05:49:00;;;;;;;5.25;1.20;;;;;;;;;;5129349;27;20043;-62
2022/05/26 05:51:26;;;;;;;4.28;1.00;;;;;;;;;;5178289;22;20052;-63
2022/05/26 05:53:52;;;;;;;7.30;1.38;;;;;;;;;;5072606;28;20552;-61
2022/05/26 05:56:18;;;;;;;5.13;1.00;;;;;;;;;;5054898;28;20128;-61
2022/05/26 05:58:44;;;;;;;5.35;0.90;;;;;;;;;;5071860;28;20492;-63
2022/05/26 06:01:10;;;;;;;7.78;1.25;;;;;;;;;;5054638;28;20500;-62
2022/05/26 06:03:39;;;;;;;4.22;1.00;;;;;;;;;;5072496;28;20049;-62
2022/05/26 06:06:07;;;;;;;6.35;1.58;;;;;;;;;;5054571;28;20445;-62
2022/05/26 06:08:33;;;;;;;5.55;1.10;;;;;;;;;;5054707;28;20049;-62
2022/05/26 06:11:00;;;;;;;4.82;1.00;;;;;;;;;;5054624;28;20052;-62
2022/05/26 06:13:26;;;;;;;6.40;1.60;;;;;;;;;;5070568;28;20405;-62
2022/05/26 06:15:52;;;;;;;7.22;1.05;;;;;;;;;;5037995;28;20088;-62
2022/05/26 06:18:19;;;;;;;7.22;1.92;;;;;;;;;;5072482;28;20047;-61
2022/05/26 06:20:45;;;;;;;10.55;1.52;;;;;;;;;;5054348;28;20052;-63
2022/05/26 06:23:11;;;;;;;5.03;1.23;;;;;;;;;;5054485;28;20132;-62
2022/05/26 06:25:37;;;;;;;5.20;0.90;;;;;;;;;;5072266;28;20128;-62
2022/05/26 06:30:48;;;;;;;5.97;0.93;;;;;;;;;;5072290;28;20123;-62
2022/05/26 06:38:44;;;;;;;8.88;1.88;;;;;;;;;;5054589;28;20059;-62
2022/05/26 06:43:57;;;;;;;1.77;1.17;;;;;;;;;;5071309;28;20131;-63
2022/05/26 06:46:23;;;;;;;4.97;1.10;;;;;;;;;;5071943;28;20048;-62
2022/05/26 06:48:49;;;;;;;13.07;1.77;;;;;;;;;;5054377;28;20422;-62
2022/05/26 06:51:16;;;;;;;6.95;0.90;;;;;;;;;;5075542;28;20052;-62
2022/05/26 06:53:42;;;;;;;4.95;0.80;;;;;;;;;;5058265;28;20064;-62
2022/05/26 06:56:08;;;;;;;7.35;1.20;;;;;;;;;;5075769;28;20055;-62
2022/05/26 06:58:34;;;;;;;4.43;1.13;;;;;;;;;;5040699;28;20052;-62
2022/05/26 07:01:00;;;;;;;3.95;1.02;;;;;;;;;;5041332;28;20426;-65
2022/05/26 07:03:27;;;;;;;10.15;1.20;;;;;;;;;;5041115;28;20140;-62
2022/05/26 07:05:53;;;;;;;4.50;0.98;;;;;;;;;;5074871;28;20059;-62
2022/05/26 07:08:19;;;;;;;5.75;1.15;;;;;;;;;;5041232;28;20049;-62
2022/05/26 07:10:50;;;;;;;6.30;1.00;;;;;;;;;;5041205;28;20053;-62
2022/05/26 07:13:17;;;;;;;2.65;0.80;;;;;;;;;;5056247;28;20054;-63
2022/05/26 07:15:43;;;;;;;5.25;1.10;;;;;;;;;;5057417;28;20408;-63
2022/05/26 07:18:09;;;;;;;3.90;0.85;;;;;;;;;;5075118;28;20527;-62
2022/05/26 07:20:39;;;;;;;3.78;1.05;;;;;;;;;;5057257;28;20432;-62
2022/05/26 07:23:08;;;;;;;5.38;1.00;;;;;;;;;;5075218;28;20036;-63
2022/05/26 07:25:34;;;;;;;3.17;0.80;;;;;;;;;;5057477;28;20049;-63
2022/05/26 07:28:00;;;;;;;8.77;2.05;;;;;;;;;;5073486;28;20041;-64
2022/05/26 07:30:26;;;;;;;4.60;0.90;;;;;;;;;;5037279;28;20508;-63
2022/05/26 07:32:52;;;;;;;4.20;0.82;;;;;;;;;;5054827;28;20500;-64
2022/05/26 07:35:18;;;;;;;3.72;0.90;;;;;;;;;;5037542;28;20047;-63
2022/05/26 07:43:29;;;;;;;6.05;1.23;;;;;;;;;;4987218;28;20497;-63
2022/05/26 07:45:55;;;;;;;5.95;1.15;;;;;;;;;;4973738;28;20050;-63
2022/05/26 07:48:21;;;;;;;4.05;0.73;;;;;;;;;;4957663;28;20403;-63
2022/05/26 07:50:47;;;;;;;3.58;0.80;;;;;;;;;;4942041;28;20054;-62
2022/05/26 07:53:13;;;;;;;5.90;0.75;;;;;;;;;;4960971;28;20061;-62
2022/05/26 07:55:42;;;;;;;5.10;1.35;;;;;;;;;;4993044;28;20061;-63
2022/05/26 07:58:09;;;;;;;7.78;1.00;;;;;;;;;;4960619;28;20438;-63
2022/05/26 08:00:35;;;;;;;5.28;0.70;;;;;;;;;;4976685;28;20054;-62
2022/05/26 08:03:01;;;;;;;4.63;0.93;;;;;;;;;;4976811;28;20050;-63
2022/05/26 08:05:27;;;;;;;2.65;0.60;;;;;;;;;;4992909;28;20054;-63
2022/05/26 08:07:53;;;;;;;8.25;1.08;;;16.80;99.90;;;;;;4992726;28;20050;-62
2022/05/26 08:10:20;;;;;;;8.98;1.50;;;;;;;;;;4994574;28;20069;-62
2022/05/26 08:12:46;;;;;;;3.47;0.77;;;;;;;;;;5012244;28;20061;-62
2022/05/26 08:15:12;;;;;;;4.38;0.93;;;;;;;;;;4996171;28;20129;-62
2022/05/26 08:17:39;;;;;;;5.75;1.35;;;;;;;;;;4996021;28;20491;-62
2022/05/26 08:20:06;;;;;;;3.30;1.10;;;17.70;99.90;;;;;;5051935;28;20143;-63
2022/05/26 08:22:31;;;;;;;5.97;1.23;;;17.90;99.90;;;;;;5039633;28;20484;-63
2022/05/26 08:24:58;;;;;;;5.72;1.17;;;17.90;99.90;;;;;;5073793;28;20044;-64
2022/05/26 08:27:25;;;;;;;5.22;0.90;;;18.30;99.90;;;;;;5059569;28;20507;-63
2022/05/26 08:29:54;;;;;;;3.25;0.70;;;;;;;;;;5076278;28;20059;-64
2022/05/26 08:32:20;;;;;;;3.83;0.68;;;;;;;;;;5075700;28;20040;-63
2022/05/26 08:34:46;;;;;;;3.25;0.75;;;18.30;99.90;;;;;;5094027;28;20123;-63
2022/05/26 08:37:17;;;;;;;4.22;0.95;;;18.40;99.90;;;;;;5059412;28;20135;-62
2022/05/26 08:39:43;;;;;;;6.20;0.82;;;18.50;99.90;;;;;;5059611;28;20089;-62
2022/05/26 08:42:27;;;;;;;2.78;0.77;;;18.70;99.90;;;;;;5093089;28;20040;-62
2022/05/26 08:44:58;;;;;;;6.25;0.80;;;18.80;99.90;;;;;;5075867;28;20086;-63
2022/05/26 08:47:30;;;;;;;3.55;0.82;;;18.90;99.90;;;;;;5075781;28;20055;-63
2022/05/26 08:50:08;;;;;;;4.60;1.08;;;19.00;99.90;;;;;;5075267;28;20131;-63
2022/05/26 08:52:55;;;;;;;4.00;0.80;;;19.50;99.90;;;;;;5072248;28;20063;-63
2022/05/26 08:55:31;;;;;;;5.10;1.00;;;19.60;99.90;;;;;;5073479;28;20146;-63
2022/05/26 08:58:09;;;;;;;6.85;0.88;;;19.80;99.90;;;;;;5072078;28;20040;-63
2022/05/26 09:00:38;;;;;;;5.60;1.00;;;19.80;99.90;;;;;;5069827;28;20515;-62
2022/05/26 09:03:21;;;;;;;5.83;1.03;;;19.90;99.90;;;;;;5055637;28;20044;-63
2022/05/26 09:05:51;;;;;;;4.95;0.75;;;19.80;99.90;;;;;;5055384;28;20344;-63
2022/05/26 09:13:54;;;;;;;6.35;1.15;;;20.00;99.90;;;;;;5071657;28;20081;-63
2022/05/26 09:16:22;;;;;;;4.13;0.90;;;19.60;99.90;;;;;;5038837;28;20102;-63
2022/05/26 09:19:06;;;;;;;2.42;0.50;;;;;;;;;;5055215;28;20052;-64
2022/05/26 09:21:32;;;;;;;5.07;0.70;;;;;;;;;;5055479;28;20063;-63
2022/05/26 09:24:29;;;;;;;3.58;0.52;;;19.30;99.90;;;;;;5055175;28;20048;-63
2022/05/26 09:26:55;;;;;;;5.25;0.60;;;;;;;;;;5018483;28;20776;-63
2022/05/26 09:29:31;;;;;;;3.00;0.60;;;19.60;99.90;;;;;;5071717;28;20060;-64
2022/05/26 09:31:58;;;;;;;5.50;0.70;;;19.40;99.90;;;;;;5055066;28;20066;-63
2022/05/26 09:34:32;;;;;;;3.42;0.90;;;19.70;99.90;;;;;;5072867;28;20080;-63
2022/05/26 09:37:01;;;;;;;7.70;1.85;;;;;;;;;;5054999;28;20052;-63
2022/05/26 09:39:42;;;;;;;2.70;0.60;;;19.60;99.90;;;;;;5071385;28;20493;-63
2022/05/26 09:42:16;;;;;;;4.50;0.57;;;19.80;99.90;;;;;;5050698;28;20068;-63
2022/05/26 09:44:51;;;;;;;6.35;0.90;;;19.70;99.90;;;;;;5072863;28;20040;-63
2022/05/26 09:47:32;;;;;;;2.58;0.80;;;20.00;99.90;;;;;;5054875;28;20056;-63
2022/05/26 09:50:01;;;;;;;7.57;0.88;;;20.30;99.90;;;;;;5072655;28;20048;-63
2022/05/26 09:52:38;;;;;;;2.42;0.95;;;19.90;99.90;;;;;;5054729;28;20071;-63
2022/05/26 09:55:07;;;;;;;6.32;1.20;;;19.40;99.90;;;;;;5072833;28;20055;-64
2022/05/26 09:57:33;;;;;;;5.50;1.17;;;;;;;;;;5053767;28;20451;-62
2022/05/26 09:59:59;;;;;;;7.80;1.15;;;;;;;;;;5038278;28;20052;-63
2022/05/26 10:02:34;;;;;;;3.60;1.08;;;;;;;;;;5072521;28;20041;-64
2022/05/26 10:05:13;;;;;;;4.88;1.30;;;19.00;99.90;;;;;;5038303;28;20135;-64
2022/05/26 10:07:48;;;;;;;10.35;1.23;;;;;;;;;;5054648;28;20047;-63
2022/05/26 10:10:32;;;;;;;7.45;1.30;;;;;;;;;;5072449;28;20110;-63
2022/05/26 10:13:33;;;;;;;8.68;1.30;;;18.50;99.90;;;;;;5053577;28;20587;-64
2022/05/26 10:16:23;;;;;;;6.57;1.20;;;18.00;99.90;;;;;;5064614;28;20063;-64
2022/05/26 10:18:55;;;;;;;4.07;1.27;;;;;;;;;;5054461;28;20135;-64
2022/05/26 10:22:03;;;;;;;8.98;1.85;;;18.60;99.90;;;;;;5072246;28;20052;-64
2022/05/26 10:24:29;;;;;;;4.85;1.10;;;;;;;;;;5055077;28;20048;-64
2022/05/26 10:27:21;;;;;;;3.58;1.00;;;19.40;99.90;;;;;;5056804;28;20044;-64
2022/05/26 10:30:02;;;;;;;5.93;1.08;;;;;;;;;;5058430;28;20041;-64
2022/05/26 10:33:08;;;;;;;5.25;1.45;;;19.40;99.90;;;;;;5076265;28;20131;-64
2022/05/26 10:35:49;;;;;;;6.38;1.50;;;;;;;;;;5058496;28;20474;-64
2022/05/26 10:38:52;;;;;;;7.18;1.30;;;19.10;99.90;;;;;;5076259;28;20131;-64
2022/05/26 10:41:43;;;;;;;5.93;1.23;;;19.40;99.90;;;;;;5075400;28;20564;-64
2022/05/26 10:44:09;;;;;;;6.30;1.35;;;;;;;;;;5074161;28;20047;-65
2022/05/26 10:46:36;;;;;;;6.53;1.55;;;;;;;;;;5058126;28;20048;-63
2022/05/26 10:49:15;;;;;;;8.85;1.55;;;19.40;99.90;;;;;;5076054;28;20051;-65
2022/05/26 10:51:55;;;;;;;5.72;1.50;;;19.80;99.90;;;;;;5041492;28;20408;-64
2022/05/26 10:54:50;;;;;;;6.30;1.70;;;19.80;99.90;;;;;;5058216;28;20088;-64
2022/05/26 10:57:38;;;;;;;8.23;1.63;;;19.90;99.90;;;;;;5066303;28;20160;-64
2022/05/26 11:00:18;;;;;;;6.82;1.67;;;19.90;99.90;;;;;;5039036;28;20049;-64
2022/05/26 11:03:19;;;;;;;7.70;2.07;;;19.90;99.90;;;;;;5055714;28;20048;-64
2022/05/26 11:06:23;;;;;;;5.05;1.50;;;20.00;99.90;;;;;;5018002;28;20069;-65
2022/05/26 11:08:54;;;;;;;6.22;1.67;;;19.80;99.90;;;;;;5048669;28;20501;-64
2022/05/26 11:11:26;;;;;;;4.53;0.88;;;19.70;99.90;;;;;;5055407;28;20049;-63
2022/05/26 11:14:06;;;;;;;8.40;1.83;;;19.50;99.90;;;;;;5051459;28;20041;-64
2022/05/26 11:19:42;;;;;;;6.45;1.70;;;19.40;99.90;;;;;;5057495;28;20135;-64
2022/05/26 11:22:09;;;;;;;5.70;1.17;;;;;;;;;;5057725;28;20447;-65
2022/05/26 11:24:35;;;;;;;8.00;1.27;;;;;;;;;;5057525;28;20051;-64
2022/05/26 11:27:04;;;;;;;4.25;1.27;;;;;;;;;;5056335;28;20044;-66
2022/05/26 11:29:38;;;;;;;4.22;1.17;;;19.70;99.90;;;;;;5075221;28;20041;-63
2022/05/26 11:38:04;;;;;;;11.18;2.35;;;;;;;;;;5057220;28;20356;-64
2022/05/26 11:40:41;;;;;;;7.40;1.63;;;19.60;99.90;;;;;;5074888;28;20068;-64
2022/05/26 11:43:07;;;;;;;6.43;1.60;;;;;;;;;;5056175;28;20127;-63
2022/05/26 11:45:46;;;;;;;4.05;1.30;;;19.90;99.90;;;;;;5056377;28;20098;-64
2022/05/26 11:48:30;;;;;;;6.88;1.88;;;;;;;;;;5057138;28;20048;-64
2022/05/26 11:51:02;;;;;;;9.15;1.55;;;;;;;;;;5073592;28;20133;-64
2022/05/26 11:53:28;;;;;;;6.75;2.20;;;;;;;;;;5074813;28;20476;-64
2022/05/26 11:55:58;;;;;;;4.50;1.52;;;20.10;99.90;;;;;;5074764;28;20135;-65
2022/05/26 11:58:38;;;;;;;7.68;1.00;;;;;;;;;;5074726;28;20048;-66
2022/05/26 12:01:33;;;;;;;5.47;1.40;;;20.00;99.90;;;;;;5056936;28;20080;-64
2022/05/26 12:04:00;;;;;;;5.53;1.40;;;;;;;;;;5056622;28;20045;-65
2022/05/26 12:06:38;;;;;;;5.75;1.42;;;;;;;;;;5056015;28;20040;-64
2022/05/26 12:09:19;;;;;;;6.43;1.65;;;;;;;;;;5074278;28;20489;-64
2022/05/26 12:12:16;;;;;;;6.45;1.40;;;20.20;99.90;;;;;;5056603;28;20053;-64
2022/05/26 12:14:44;;;;;;;10.10;1.67;;;;;;;;;;5074408;28;20044;-65
2022/05/26 12:17:26;;;;;;;5.47;1.48;;;20.20;99.90;;;;;;5056458;28;20097;-66
2022/05/26 12:19:52;;;;;;;6.40;1.50;;;;;;;;;;5056296;28;20048;-64
2022/05/26 12:22:30;;;;;;;7.95;1.58;;;19.90;99.90;;;;;;5054783;28;20087;-63
2022/05/26 12:25:04;;;;;;;6.03;1.30;;;19.70;99.90;;;;;;5056219;28;20051;-65
2022/05/26 12:27:49;;;;;;;4.20;1.42;;;;;;;;;;5056418;28;20142;-64
2022/05/26 12:30:30;;;;;;;7.88;1.52;;;;;;;;;;5056047;28;20056;-65
2022/05/26 12:32:56;;;;;;;5.80;1.55;;;;;;;;;;5056135;28;20048;-64
2022/05/26 12:35:40;;;;;;;9.15;1.88;;;19.40;99.90;;;;;;5056329;28;20102;-63
2022/05/26 12:38:39;;;;;;;5.55;1.63;;;19.60;99.90;;;;;;5038823;28;20492;-63
2022/05/26 12:41:05;;;;;;;12.05;1.90;;;;;;;;;;5073642;28;20071;-63
2022/05/26 12:43:46;;;;;;;6.20;1.70;;;;;;;;;;5056002;28;20504;-65
2022/05/26 12:46:34;;;;;;;5.13;1.30;;;19.90;99.90;;;;;;5056306;28;20052;-64
2022/05/26 12:49:16;;;;;;;6.00;1.30;;;;;;;;;;5054514;28;20048;-64
2022/05/26 12:51:42;;;;;;;6.07;1.10;;;20.20;99.90;;;;;;5073680;28;20060;-64
2022/05/26 12:54:16;;;;;;;4.28;1.17;;;20.30;99.90;;;;;;5039196;28;20046;-64
2022/05/26 12:56:55;;;;;;;9.25;1.85;;;20.20;99.90;;;;;;5038349;28;20416;-63
2022/05/26 12:59:24;;;;;;;9.10;2.25;;;20.20;99.90;;;;;;5037588;28;20044;-65
2022/05/26 13:01:50;;;;;;;10.40;1.50;;;20.20;99.90;;;;;;5039242;28;20052;-64
2022/05/26 13:04:19;;;;;;;6.82;1.55;;;;;;;;;;5055330;28;20548;-63
2022/05/26 13:06:52;;;;;;;6.65;1.55;;;19.90;99.90;;;;;;5073127;28;20485;-64
2022/05/26 13:09:25;;;;;;;9.65;1.98;;;19.70;99.90;;;;;;5055709;28;20048;-65
2022/05/26 13:14:50;;;;;;;10.02;1.92;;;20.20;99.90;;;;;;5108066;28;20119;-64
2022/05/26 13:17:22;;;;;;;8.98;1.83;;;;;;;;;;5111238;28;20112;-65
2022/05/26 13:19:50;;;;;;;9.40;2.00;;;20.20;99.90;;;;;;5075200;28;20056;-64
2022/05/26 13:22:21;;;;;;;5.95;1.90;;;20.60;99.90;;;;;;5075460;28;20113;-64
2022/05/26 13:25:01;;;;;;;7.10;1.73;;;20.50;99.90;;;;;;5092984;28;20048;-64
2022/05/26 13:27:45;;;;;;;6.97;1.55;;;20.50;99.90;;;;;;5093307;28;20044;-64
2022/05/26 13:35:25;;;;;;;5.70;1.65;;;;;;;;;;5053140;28;20512;-63
2022/05/26 13:37:51;;;;;;;8.55;2.10;;;;;;;;;;5035305;28;20133;-64
2022/05/26 13:40:29;;;;;;;12.80;2.58;;;19.90;99.90;;;;;;5034972;28;20045;-63
2022/05/26 13:42:55;;;;;;;7.30;1.40;;;;;;;;;;5034768;28;20101;-64
2022/05/26 13:45:27;;;;;;;7.22;2.28;;;19.40;99.90;;;;;;5017845;28;20097;-63
2022/05/26 13:48:27;;;;;;;7.78;2.00;;;19.20;99.90;;;;;;5018489;28;20051;-64
2022/05/26 13:51:00;;;;;;;6.00;1.70;;;19.30;99.90;;;;;;5034884;28;20055;-65
2022/05/26 13:53:26;;;;;;;6.05;1.88;;;;;;;;;;5034889;28;20053;-64
2022/05/26 13:55:56;;;;;;;9.23;1.70;;;19.40;99.90;;;;;;5034792;28;20049;-63
2022/05/26 13:58:22;;;;;;;6.35;2.00;;;;;;;;;;5034626;28;20493;-64
2022/05/26 14:01:02;;;;;;;8.73;1.90;;;19.40;99.90;;;;;;5018155;28;20509;-63
2022/05/26 14:03:33;;;;;;;4.63;1.52;;;19.50;99.90;;;;;;5034707;28;20123;-64
2022/05/26 14:06:10;;;;;;;10.45;2.63;;;;;;;;;;5034972;28;20170;-64
2022/05/26 14:08:54;;;;;;;10.75;2.75;;;19.00;99.90;;;;;;5018224;28;20059;-64
2022/05/26 14:11:29;;;;;;;9.00;2.33;;;;;;;;;;5052284;28;20119;-63
2022/05/26 14:14:16;;;;;;;14.15;3.03;;;;;;;;;;5018388;28;20057;-64
2022/05/26 14:16:42;;;;;;;7.85;1.95;;;;;;;;;;5052031;28;20064;-64
2022/05/26 14:19:08;;;;;;;9.65;1.52;;;;;;;;;;5052194;28;20397;-64
2022/05/26 14:21:34;;;;;;;8.52;1.80;;;;;;;;;;5018349;28;20060;-64
2022/05/26 14:24:18;;;;;;;6.40;1.88;;;;;;;;;;5033814;28;20048;-63
2022/05/26 14:26:45;;;;;;;5.13;2.10;;;;;;;;;;5052388;28;20055;-64
2022/05/26 14:29:17;;;;;;;6.78;2.20;;;;;;;;;;5034329;28;20123;-64
2022/05/26 14:32:02;;;;;;;6.50;2.13;;;;;;;;;;5034386;28;20500;-64
2022/05/26 14:34:32;;;;;;;10.57;2.40;;;;;;;;;;5052235;28;20049;-64
2022/05/26 14:36:58;;;;;;;8.20;2.50;;;;;;;;;;5034660;28;20132;-64
2022/05/26 14:39:24;;;;;;;7.38;1.90;;;;;;;;;;5033925;28;20065;-63
2022/05/26 14:41:55;;;;;;;5.85;1.83;;;;;;;;;;5017630;28;20451;-63
2022/05/26 14:44:20;;;;;;;;;;;18.30;99.90;;;;;;5034757;28;20093;-63
2022/05/26 14:46:46;;;;;;;11.02;2.92;;;;;;;;;;5052202;28;19933;-63
2022/05/26 14:49:13;;;;;;;9.63;2.47;;;;;;;;;;5034195;28;20045;-65
2022/05/26 14:51:42;;;;;;;7.82;1.60;;;;;;;;;;5034104;28;20052;-63
2022/05/26 14:56:53;;;;;;;7.22;1.50;;;;;;;;;;5034666;28;20061;-64
2022/05/26 14:59:19;;;;;;;8.52;1.75;;;;;;;;;;5034246;28;20051;-63
2022/05/26 15:01:46;;;;;;;7.15;1.60;;;;;;;;;;5051357;28;20037;-63
2022/05/26 15:04:12;;;;;;;7.20;1.77;;;;;;;;;;5034006;28;20147;-63
2022/05/26 15:06:42;;;;;;;14.70;2.55;;;;;;;;;;5034130;28;20143;-63
2022/05/26 15:09:09;;;;;;;6.15;1.75;;;;;;;;;;5034461;28;20059;-64
2022/05/26 15:11:35;;;;;;;11.20;1.92;;;;;;;;;;5035363;28;20075;-63
2022/05/26 15:14:01;;;;;;;10.15;2.42;;;;;;;;;;5055490;28;20132;-64
2022/05/26 15:16:28;;;;;;;5.15;1.50;;;;;;;;;;5054826;28;20140;-63
2022/05/26 15:18:54;;;;;;;8.82;2.72;;;;;;;;;;5055241;28;20450;-63
2022/05/26 15:21:20;;;;;;;6.22;1.58;;;;;;;;;;5021082;28;20049;-63
2022/05/26 15:23:46;;;;;;;7.20;1.92;;;;;;;;;;5037044;28;20477;-63